createdAt,value
2022-10-30T00:01:59.660Z,99872.78
2022-10-30T00:04:31.253Z,99872.34
2022-10-30T00:07:06.208Z,99868.03
2022-10-30T00:09:37.656Z,99859.38
2022-10-30T00:12:09.323Z,99858.56
2022-10-30T00:14:40.988Z,99871.56
2022-10-30T00:17:12.901Z,99872.56
2022-10-30T00:19:47.104Z,99869.06
2022-10-30T00:22:21.287Z,99872.56
2022-10-30T00:25:00.122Z,99871.09
2022-10-30T00:27:34.797Z,99870.44
2022-10-30T00:30:07.183Z,99869.78
2022-10-30T00:32:41.427Z,99864.47
2022-10-30T00:35:13.088Z,99867.94
2022-10-30T00:37:45.050Z,99865.94
2022-10-30T00:40:18.200Z,99861.63
2022-10-30T00:42:49.859Z,99865.13
2022-10-30T00:45:21.541Z,99859.81
2022-10-30T00:48:00.146Z,99859.97
2022-10-30T00:50:39.495Z,99860.19
2022-10-30T00:53:17.741Z,99866.50
2022-10-30T00:55:56.344Z,99862.19
2022-10-30T00:58:36.304Z,99861.53
2022-10-30T01:01:19.981Z,99858.03
2022-10-30T01:03:56.557Z,99851.88
2022-10-30T01:06:34.587Z,99858.88
2022-10-30T01:09:09.060Z,99859.22
2022-10-30T01:11:41.460Z,99853.25
2022-10-30T01:14:17.381Z,99856.75
2022-10-30T01:17:02.957Z,99858.56
2022-10-30T01:20:03.533Z,99855.63
2022-10-30T01:22:54.734Z,99851.97
2022-10-30T01:25:44.595Z,99855.47
2022-10-30T01:28:38.337Z,99852.81
2022-10-30T01:31:50.432Z,99847.00
2022-10-30T01:34:53.379Z,99847.53
2022-10-30T01:37:34.040Z,99849.91
2022-10-30T01:40:13.500Z,99843.75
2022-10-30T01:42:52.729Z,99842.75
2022-10-30T01:45:56.525Z,99841.28
2022-10-30T01:48:52.673Z,99825.34
2022-10-30T01:51:52.508Z,99832.00
2022-10-30T01:54:58.632Z,99829.91
2022-10-30T01:57:58.004Z,99822.28
2022-10-30T02:00:32.335Z,99824.28
2022-10-30T02:03:05.327Z,99817.31
2022-10-30T02:05:48.646Z,99811.34
2022-10-30T02:08:24.569Z,99814.38
2022-10-30T02:10:58.255Z,99816.38
2022-10-30T02:13:46.002Z,99815.91
2022-10-30T02:16:19.293Z,99808.44
2022-10-30T02:18:50.914Z,99820.09
2022-10-30T02:21:22.549Z,99824.72
2022-10-30T02:23:55.855Z,99825.06
2022-10-30T02:26:27.495Z,99834.88
2022-10-30T02:28:59.191Z,99827.72
2022-10-30T02:31:30.883Z,99825.59
2022-10-30T02:34:02.698Z,99830.59
2022-10-30T02:36:38.005Z,99820.34
2022-10-30T02:39:12.455Z,99831.09
2022-10-30T02:41:51.181Z,99822.47
2022-10-30T02:44:22.813Z,99816.69
2022-10-30T02:46:54.413Z,99830.28
2022-10-30T02:49:27.519Z,99837.94
2022-10-30T02:51:59.360Z,99827.38
2022-10-30T02:54:35.088Z,99837.50
2022-10-30T02:57:10.197Z,99835.84
2022-10-30T02:59:42.927Z,99824.75
2022-10-30T03:02:17.388Z,99832.03
2022-10-30T03:04:49.099Z,99836.72
2022-10-30T03:07:20.798Z,99830.91
2022-10-30T03:09:55.528Z,99824.78
2022-10-30T03:12:27.125Z,99823.09
2022-10-30T03:15:01.783Z,99826.59
2022-10-30T03:17:33.436Z,99825.28
2022-10-30T03:20:05.482Z,99826.94
2022-10-30T03:22:38.504Z,99831.25
2022-10-30T03:25:12.124Z,99830.25
2022-10-30T03:27:52.850Z,99829.75
2022-10-30T03:30:25.360Z,99823.63
2022-10-30T03:32:59.106Z,99820.34
2022-10-30T03:35:32.849Z,99822.81
2022-10-30T03:38:04.537Z,99821.81
2022-10-30T03:40:37.337Z,99816.19
2022-10-30T03:43:09.540Z,99817.66
2022-10-30T03:45:49.319Z,99808.88
2022-10-30T03:48:24.721Z,99814.66
2022-10-30T03:50:57.997Z,99818.16
2022-10-30T03:53:30.191Z,99822.25
2022-10-30T03:56:04.639Z,99812.78
2022-10-30T03:59:00.884Z,99810.66
2022-10-30T04:01:36.386Z,99819.44
2022-10-30T04:04:08.310Z,99820.28
2022-10-30T04:06:40.022Z,99828.41
2022-10-30T04:09:19.050Z,99814.81
2022-10-30T04:11:50.833Z,99817.09
2022-10-30T04:14:25.251Z,99818.59
2022-10-30T04:16:56.990Z,99819.44
2022-10-30T04:19:28.595Z,99811.13
2022-10-30T04:22:00.270Z,99813.59
2022-10-30T04:24:32.088Z,99810.78
2022-10-30T04:27:06.916Z,99799.81
2022-10-30T04:29:38.392Z,99795.88
2022-10-30T04:32:10.739Z,99797.03
2022-10-30T04:34:42.760Z,99799.53
2022-10-30T04:37:14.553Z,99804.84
2022-10-30T04:39:48.676Z,99807.34
2022-10-30T04:42:25.747Z,99801.88
2022-10-30T04:44:58.991Z,99794.75
2022-10-30T04:47:30.940Z,99794.75
2022-10-30T04:50:02.868Z,99784.75
2022-10-30T04:52:37.681Z,99784.59
2022-10-30T04:55:10.808Z,99786.41
2022-10-30T04:57:42.969Z,99781.81
2022-10-30T05:00:14.819Z,99796.59
2022-10-30T05:02:46.590Z,99802.06
2022-10-30T05:05:18.270Z,99782.66
2022-10-30T05:07:49.910Z,99760.69
2022-10-30T05:10:22.944Z,99808.09
2022-10-30T05:13:00.643Z,99825.31
2022-10-30T05:15:38.325Z,99781.81
2022-10-30T05:18:16.059Z,99793.59
2022-10-30T05:20:50.980Z,99808.31
2022-10-30T05:23:25.457Z,99805.13
2022-10-30T05:25:57.140Z,99792.22
2022-10-30T05:28:33.340Z,99782.16
2022-10-30T05:31:05.210Z,99783.63
2022-10-30T05:33:58.664Z,99791.75
2022-10-30T05:36:34.208Z,99796.88
2022-10-30T05:39:06.734Z,99802.19
2022-10-30T05:41:45.501Z,99800.88
2022-10-30T05:44:34.207Z,99803.69
2022-10-30T05:47:12.901Z,99808.97
2022-10-30T05:49:49.449Z,99806.31
2022-10-30T05:52:27.284Z,99813.28
2022-10-30T05:55:03.498Z,99819.41
2022-10-30T05:57:46.692Z,99809.97
2022-10-30T06:00:18.413Z,99810.13
2022-10-30T06:02:50.013Z,99819.94
2022-10-30T06:05:21.666Z,99816.97
2022-10-30T06:07:57.233Z,99817.75
2022-10-30T06:10:29.357Z,99815.63
2022-10-30T06:13:23.096Z,99816.13
2022-10-30T06:16:16.258Z,99821.75
2022-10-30T06:19:08.045Z,99829.22
2022-10-30T06:21:50.100Z,99830.38
2022-10-30T06:24:47.077Z,99825.91
2022-10-30T06:27:44.475Z,99834.16
2022-10-30T06:30:20.155Z,99830.53
2022-10-30T06:33:02.693Z,99834.31
2022-10-30T06:35:34.903Z,99837.81
2022-10-30T06:38:08.755Z,99841.09
2022-10-30T06:40:41.145Z,99834.47
2022-10-30T06:43:27.792Z,99829.53
2022-10-30T06:46:03.406Z,99834.00
2022-10-30T06:48:36.986Z,99838.94
2022-10-30T06:51:08.775Z,99849.22
2022-10-30T06:53:46.198Z,99849.56
2022-10-30T06:56:50.611Z,99850.84
2022-10-30T06:59:47.199Z,99847.38
2022-10-30T07:03:02.076Z,99843.22
2022-10-30T07:05:37.613Z,99844.53
2022-10-30T07:08:09.300Z,99841.19
2022-10-30T07:10:41.568Z,99847.00
2022-10-30T07:13:32.132Z,99846.66
2022-10-30T07:16:22.550Z,99842.50
2022-10-30T07:18:59.280Z,99839.34
2022-10-30T07:21:35.835Z,99838.16
2022-10-30T07:24:11.546Z,99840.81
2022-10-30T07:26:55.976Z,99856.41
2022-10-30T07:29:53.741Z,99855.94
2022-10-30T07:32:46.225Z,99836.72
2022-10-30T07:35:38.857Z,99823.16
2022-10-30T07:38:28.175Z,99819.19
2022-10-30T07:41:07.645Z,99831.56
2022-10-30T07:43:54.417Z,99811.69
2022-10-30T07:46:47.814Z,99815.56
2022-10-30T07:49:31.739Z,99823.28
2022-10-30T07:52:14.490Z,99823.81
2022-10-30T07:54:50.451Z,99814.53
2022-10-30T07:57:43.178Z,99823.91
2022-10-30T08:00:23.660Z,99827.84
2022-10-30T08:03:05.260Z,99811.75
2022-10-30T08:05:55.516Z,99808.00
2022-10-30T08:08:43.108Z,99799.78
2022-10-30T08:11:34.433Z,99805.25
2022-10-30T08:14:07.704Z,99825.34
2022-10-30T08:16:39.348Z,99823.19
2022-10-30T08:19:12.368Z,99824.13
2022-10-30T08:21:46.908Z,99828.56
2022-10-30T08:24:25.344Z,99815.25
2022-10-30T08:26:58.806Z,99819.88
2022-10-30T08:29:32.491Z,99814.25
2022-10-30T08:32:04.649Z,99821.41
2022-10-30T08:35:01.904Z,99818.38
2022-10-30T08:37:39.562Z,99817.06
2022-10-30T08:40:11.386Z,99826.50
2022-10-30T08:43:02.939Z,99820.06
2022-10-30T08:45:37.174Z,99814.56
2022-10-30T08:48:16.287Z,99811.91
2022-10-30T08:50:51.238Z,99806.47
2022-10-30T08:53:30.873Z,99804.09
2022-10-30T08:56:02.932Z,99802.28
2022-10-30T08:58:46.387Z,99791.84
2022-10-30T09:01:19.692Z,99794.91
2022-10-30T09:04:15.588Z,99798.50
2022-10-30T09:06:56.067Z,99796.69
2022-10-30T09:09:48.555Z,99810.41
2022-10-30T09:12:24.375Z,99803.94
2022-10-30T09:14:56.008Z,99814.97
2022-10-30T09:17:27.811Z,99816.47
2022-10-30T09:20:00.393Z,99814.09
2022-10-30T09:22:41.670Z,99823.03
2022-10-30T09:25:15.923Z,99821.72
2022-10-30T09:27:53.789Z,99827.56
2022-10-30T09:30:28.613Z,99834.31
2022-10-30T09:33:02.675Z,99838.69
2022-10-30T09:35:54.660Z,99843.00
2022-10-30T09:38:26.537Z,99850.94
2022-10-30T09:41:18.618Z,99838.53
2022-10-30T09:44:07.261Z,99841.38
2022-10-30T09:47:06.332Z,99837.06
2022-10-30T09:50:15.833Z,99827.63
2022-10-30T09:53:50.025Z,99819.75
2022-10-30T09:56:39.097Z,99812.84
2022-10-30T09:59:36.351Z,99817.88
2022-10-30T10:02:27.742Z,99817.94
2022-10-30T10:05:20.410Z,99821.72
2022-10-30T10:08:17.467Z,99806.47
2022-10-30T10:11:28.896Z,99819.28
2022-10-30T10:14:14.916Z,99817.72
2022-10-30T10:16:54.560Z,99813.88
2022-10-30T10:19:34.641Z,99812.63
2022-10-30T10:22:17.406Z,99809.59
2022-10-30T10:24:49.817Z,99808.31
2022-10-30T10:28:09.635Z,99803.56
2022-10-30T10:30:50.192Z,99793.38
2022-10-30T10:33:43.380Z,99792.22
2022-10-30T10:36:55.366Z,99791.91
2022-10-30T10:39:46.558Z,99792.22
2022-10-30T10:42:47.913Z,99780.34
2022-10-30T10:45:29.461Z,99782.41
2022-10-30T10:48:25.375Z,99779.41
2022-10-30T10:51:33.716Z,99782.06
2022-10-30T10:54:15.049Z,99774.31
2022-10-30T10:56:56.011Z,99778.00
2022-10-30T10:59:38.512Z,99773.66
2022-10-30T11:02:32.057Z,99767.47
2022-10-30T11:05:31.247Z,99775.53
2022-10-30T11:08:25.329Z,99775.31
2022-10-30T11:11:07.562Z,99773.44
2022-10-30T11:13:45.558Z,99768.91
2022-10-30T11:16:38.515Z,99769.72
2022-10-30T11:19:10.104Z,99766.06
2022-10-30T11:21:54.535Z,99768.25
2022-10-30T11:24:34.031Z,99765.69
2022-10-30T11:27:28.619Z,99760.06
2022-10-30T11:30:06.127Z,99765.53
2022-10-30T11:32:37.772Z,99773.19
2022-10-30T11:35:09.364Z,99770.06
2022-10-30T11:37:43.265Z,99760.56
2022-10-30T11:40:15.004Z,99755.56
2022-10-30T11:42:54.784Z,99759.50
2022-10-30T11:45:37.752Z,99753.91
2022-10-30T11:48:18.380Z,99755.03
2022-10-30T11:50:54.875Z,99750.66
2022-10-30T11:53:52.180Z,99746.06
2022-10-30T11:56:23.819Z,99746.81
2022-10-30T11:58:59.740Z,99735.00
2022-10-30T12:01:36.847Z,99743.84
2022-10-30T12:04:28.298Z,99737.22
2022-10-30T12:07:28.003Z,99737.16
2022-10-30T12:10:01.704Z,99747.31
2022-10-30T12:12:41.919Z,99741.53
2022-10-30T12:15:13.452Z,99732.00
2022-10-30T12:17:53.322Z,99731.72
2022-10-30T12:20:26.175Z,99745.78
2022-10-30T12:23:00.632Z,99734.03
2022-10-30T12:25:32.998Z,99735.72
2022-10-30T12:28:06.519Z,99734.25
2022-10-30T12:30:52.547Z,99733.81
2022-10-30T12:33:50.362Z,99723.16
2022-10-30T12:36:37.636Z,99727.66
2022-10-30T12:39:19.535Z,99725.41
2022-10-30T12:42:11.487Z,99719.63
2022-10-30T12:44:54.452Z,99714.97
2022-10-30T12:47:52.299Z,99709.19
2022-10-30T12:50:27.921Z,99700.56
2022-10-30T12:53:07.257Z,99701.38
2022-10-30T12:55:45.214Z,99705.09
2022-10-30T12:58:33.795Z,99719.50
2022-10-30T13:01:12.357Z,99717.03
2022-10-30T13:03:51.394Z,99715.22
2022-10-30T13:06:28.543Z,99710.91
2022-10-30T13:09:49.104Z,99716.63
2022-10-30T13:12:30.683Z,99712.50
2022-10-30T13:15:21.788Z,99699.91
2022-10-30T13:20:45.414Z,99702.91
2022-10-30T13:23:28.677Z,99697.47
2022-10-30T13:26:13.437Z,99701.88
2022-10-30T13:29:30.789Z,99697.81
2022-10-30T13:32:38.684Z,99701.34
2022-10-30T13:35:20.662Z,99698.66
2022-10-30T13:38:14.172Z,99693.53
2022-10-30T13:41:08.298Z,99694.94
2022-10-30T13:44:25.188Z,99692.25
2022-10-30T13:46:57.092Z,99687.53
2022-10-30T13:49:57.029Z,99694.72
2022-10-30T13:52:36.550Z,99692.88
2022-10-30T13:55:19.341Z,99696.56
2022-10-30T13:58:19.823Z,99697.38
2022-10-30T14:01:56.403Z,99698.00
2022-10-30T14:04:50.429Z,99702.13
2022-10-30T14:07:38.998Z,99702.75
2022-10-30T14:10:55.929Z,99702.34
2022-10-30T14:13:56.747Z,99706.69
2022-10-30T14:16:40.419Z,99702.75
2022-10-30T14:19:15.038Z,99704.56
2022-10-30T14:21:57.758Z,99708.44
2022-10-30T14:24:44.114Z,99701.00
2022-10-30T14:27:26.962Z,99703.09
2022-10-30T14:30:00.255Z,99699.63
2022-10-30T14:32:42.290Z,99696.34
2022-10-30T14:35:38.291Z,99699.63
2022-10-30T14:38:09.870Z,99701.69
2022-10-30T14:40:57.086Z,99697.38
2022-10-30T14:43:57.533Z,99699.84
2022-10-30T14:46:57.729Z,99696.53
2022-10-30T14:49:42.767Z,99703.34
2022-10-30T14:52:27.288Z,99698.00
2022-10-30T14:55:14.194Z,99703.72
2022-10-30T14:58:05.967Z,99699.97
2022-10-30T15:00:40.809Z,99698.94
2022-10-30T15:03:13.517Z,99689.91
2022-10-30T15:06:03.207Z,99692.34
2022-10-30T15:09:26.467Z,99686.78
2022-10-30T15:12:20.862Z,99683.28
2022-10-30T15:14:59.500Z,99687.81
2022-10-30T15:17:36.950Z,99690.66
2022-10-30T15:20:25.060Z,99696.97
2022-10-30T15:23:18.299Z,99689.06
2022-10-30T15:25:55.723Z,99686.34
2022-10-30T15:28:34.560Z,99693.69
2022-10-30T15:31:18.420Z,99694.41
2022-10-30T15:33:59.671Z,99692.97
2022-10-30T15:36:40.896Z,99692.59
2022-10-30T15:39:17.484Z,99696.69
2022-10-30T15:41:56.976Z,99697.97
2022-10-30T15:44:35.207Z,99698.56
2022-10-30T15:47:17.048Z,99701.88
2022-10-30T15:49:55.161Z,99702.06
2022-10-30T15:52:29.615Z,99698.56
2022-10-30T15:55:17.051Z,99695.47
2022-10-30T15:58:08.906Z,99704.91
2022-10-30T16:00:40.578Z,99710.78
2022-10-30T16:03:14.968Z,99702.19
2022-10-30T16:05:46.671Z,99702.97
2022-10-30T16:08:23.725Z,99709.69
2022-10-30T16:10:56.682Z,99707.78
2022-10-30T16:13:30.938Z,99703.03
2022-10-30T16:16:03.541Z,99704.47
2022-10-30T16:18:37.075Z,99702.38
2022-10-30T16:21:13.957Z,99699.84
2022-10-30T16:23:52.162Z,99696.50
2022-10-30T16:26:38.086Z,99692.94
2022-10-30T16:29:21.208Z,99692.03
2022-10-30T16:31:53.687Z,99693.81
2022-10-30T16:34:34.803Z,99691.72
2022-10-30T16:37:11.077Z,99693.13
2022-10-30T16:39:45.736Z,99698.56
2022-10-30T16:42:23.446Z,99703.81
2022-10-30T16:45:24.423Z,99693.13
2022-10-30T16:48:08.920Z,99700.84
2022-10-30T16:50:40.966Z,99705.25
2022-10-30T16:53:25.952Z,99698.03
2022-10-30T16:56:01.652Z,99696.59
2022-10-30T16:58:33.382Z,99702.25
2022-10-30T17:01:06.708Z,99706.31
2022-10-30T17:03:46.563Z,99707.88
2022-10-30T17:06:27.260Z,99709.47
2022-10-30T17:09:00.937Z,99702.22
2022-10-30T17:11:44.531Z,99706.06
2022-10-30T17:14:22.001Z,99705.81
2022-10-30T17:16:56.441Z,99716.16
2022-10-30T17:19:33.922Z,99718.56
2022-10-30T17:22:14.352Z,99720.91
2022-10-30T17:24:47.679Z,99725.13
2022-10-30T17:27:49.345Z,99726.69
2022-10-30T17:30:39.316Z,99729.88
2022-10-30T17:33:37.874Z,99735.75
2022-10-30T17:36:09.578Z,99735.28
2022-10-30T17:38:41.166Z,99731.53
2022-10-30T17:41:16.922Z,99731.06
2022-10-30T17:43:51.628Z,99743.88
2022-10-30T17:46:25.536Z,99745.44
2022-10-30T17:48:59.126Z,99740.66
2022-10-30T17:51:32.388Z,99738.53
2022-10-30T17:54:10.006Z,99739.06
2022-10-30T17:56:42.126Z,99744.75
2022-10-30T17:59:16.158Z,99744.47
2022-10-30T18:01:50.766Z,99747.31
2022-10-30T18:04:22.353Z,99749.47
2022-10-30T18:06:53.991Z,99756.81
2022-10-30T18:09:25.589Z,99758.63
2022-10-30T18:11:57.181Z,99753.66
2022-10-30T18:14:28.820Z,99757.69
2022-10-30T18:17:00.529Z,99756.03
2022-10-30T18:19:35.235Z,99758.06
2022-10-30T18:22:06.875Z,99755.75
2022-10-30T18:24:38.931Z,99761.22
2022-10-30T18:27:10.561Z,99763.25
2022-10-30T18:29:42.148Z,99766.25
2022-10-30T18:32:14.779Z,99760.31
2022-10-30T18:34:46.406Z,99761.31
2022-10-30T18:37:18.058Z,99756.16
2022-10-30T18:39:49.669Z,99760.66
2022-10-30T18:42:24.145Z,99756.34
2022-10-30T18:44:58.024Z,99761.00
2022-10-30T18:47:29.636Z,99759.69
2022-10-30T18:50:01.276Z,99758.75
2022-10-30T18:52:33.147Z,99760.59
2022-10-30T18:55:39.376Z,99757.13
2022-10-30T18:58:11.940Z,99760.09
2022-10-30T19:01:10.439Z,99751.84
2022-10-30T19:03:42.037Z,99754.84
2022-10-30T19:06:22.334Z,99747.69
2022-10-30T19:08:55.243Z,99745.25
2022-10-30T19:11:30.257Z,99743.72
2022-10-30T19:14:05.981Z,99747.75
2022-10-30T19:16:37.603Z,99747.91
2022-10-30T19:19:09.497Z,99752.56
2022-10-30T19:21:41.143Z,99753.06
2022-10-30T19:24:15.149Z,99741.84
2022-10-30T19:26:48.005Z,99741.00
2022-10-30T19:29:19.604Z,99746.66
2022-10-30T19:31:53.935Z,99745.81
2022-10-30T19:34:25.574Z,99746.00
2022-10-30T19:36:57.223Z,99744.69
2022-10-30T19:39:28.881Z,99747.69
2022-10-30T19:42:00.511Z,99745.38
2022-10-30T19:44:32.107Z,99750.69
2022-10-30T19:47:03.726Z,99753.69
2022-10-30T19:49:35.353Z,99752.03
2022-10-30T19:52:06.988Z,99750.53
2022-10-30T19:54:38.582Z,99750.25
2022-10-30T19:57:13.842Z,99754.88
2022-10-30T19:59:45.472Z,99752.59
2022-10-30T20:02:17.189Z,99750.09
2022-10-30T20:04:48.931Z,99753.09
2022-10-30T20:07:20.606Z,99757.75
2022-10-30T20:09:52.221Z,99759.94
2022-10-30T20:12:23.860Z,99761.91
2022-10-30T20:14:58.427Z,99759.78
2022-10-30T20:17:29.935Z,99765.41
2022-10-30T20:20:01.498Z,99760.63
2022-10-30T20:22:33.132Z,99772.22
2022-10-30T20:25:05.099Z,99773.38
2022-10-30T20:27:43.195Z,99771.06
2022-10-30T20:30:32.733Z,99760.81
2022-10-30T20:33:12.142Z,99756.69
2022-10-30T20:35:43.757Z,99768.25
2022-10-30T20:38:22.200Z,99770.09
2022-10-30T20:40:54.344Z,99771.75
2022-10-30T20:43:31.792Z,99770.09
2022-10-30T20:46:06.027Z,99760.66
2022-10-30T20:48:38.077Z,99769.75
2022-10-30T20:51:11.254Z,99775.06
2022-10-30T20:53:42.888Z,99767.63
2022-10-30T20:56:16.762Z,99761.66
2022-10-30T20:58:48.392Z,99770.63
2022-10-30T21:01:20.120Z,99777.22
2022-10-30T21:03:53.774Z,99776.59
2022-10-30T21:06:30.197Z,99774.09
2022-10-30T21:09:01.840Z,99772.44
2022-10-30T21:11:33.749Z,99769.97
2022-10-30T21:14:05.400Z,99780.91
2022-10-30T21:16:39.928Z,99771.66
2022-10-30T21:19:13.758Z,99777.41
2022-10-30T21:21:45.412Z,99775.75
2022-10-30T21:24:17.132Z,99774.28
2022-10-30T21:26:48.706Z,99774.59
2022-10-30T21:29:20.315Z,99776.44
2022-10-30T21:31:51.903Z,99774.81
2022-10-30T21:34:23.579Z,99775.78
2022-10-30T21:36:55.194Z,99772.47
2022-10-30T21:39:26.820Z,99772.63
2022-10-30T21:41:58.496Z,99774.78
2022-10-30T21:44:30.170Z,99777.75
2022-10-30T21:47:04.661Z,99771.94
2022-10-30T21:49:39.711Z,99773.13
2022-10-30T21:52:14.364Z,99778.41
2022-10-30T21:54:45.801Z,99775.25
2022-10-30T21:57:17.364Z,99781.53
2022-10-30T21:59:48.967Z,99781.72
2022-10-30T22:02:20.612Z,99778.41
2022-10-30T22:04:52.263Z,99782.03
2022-10-30T22:07:24.163Z,99783.00
2022-10-30T22:09:58.796Z,99787.47
2022-10-30T22:12:30.325Z,99779.72
2022-10-30T22:15:01.969Z,99773.75
2022-10-30T22:17:34.960Z,99772.44
2022-10-30T22:20:08.828Z,99770.09
2022-10-30T22:22:48.829Z,99773.09
2022-10-30T22:25:23.530Z,99768.94
2022-10-30T22:27:54.911Z,99767.47
2022-10-30T22:30:26.605Z,99774.72
2022-10-30T22:32:59.450Z,99770.44
2022-10-30T22:35:31.253Z,99775.72
2022-10-30T22:38:06.966Z,99772.75
2022-10-30T22:40:38.774Z,99771.25
2022-10-30T22:43:10.435Z,99774.38
2022-10-30T22:45:47.233Z,99780.16
2022-10-30T22:48:21.904Z,99775.03
2022-10-30T22:51:04.440Z,99775.34
2022-10-30T22:53:37.619Z,99779.66
2022-10-30T22:56:23.787Z,99784.94
2022-10-30T22:58:56.441Z,99779.97
2022-10-30T23:01:32.489Z,99783.59
2022-10-30T23:04:05.422Z,99780.94
2022-10-30T23:06:37.614Z,99782.94
2022-10-30T23:09:16.068Z,99788.53
2022-10-30T23:11:50.994Z,99779.28
2022-10-30T23:14:26.945Z,99784.06
2022-10-30T23:16:59.931Z,99787.88
2022-10-30T23:19:31.568Z,99786.50
2022-10-30T23:22:03.219Z,99787.00
2022-10-30T23:24:34.787Z,99784.00
2022-10-30T23:27:06.386Z,99789.09
2022-10-30T23:29:37.948Z,99801.47
2022-10-30T23:32:12.703Z,99798.13
2022-10-30T23:34:44.109Z,99795.00
2022-10-30T23:37:15.709Z,99793.97
2022-10-30T23:39:47.597Z,99798.25
2022-10-30T23:42:19.186Z,99797.09
2022-10-30T23:44:50.745Z,99797.78
2022-10-30T23:47:24.795Z,99798.63
2022-10-30T23:49:56.428Z,99799.25
2022-10-30T23:52:31.009Z,99796.47
2022-10-30T23:55:02.627Z,99792.69
2022-10-30T23:57:34.219Z,99795.84
